K-storm — V2DV8 — position and weather

sailwx.info

Track history (hours):
 
Tides and Currents Weather Stations Pressure Air Temp Water Temp Dewpoint Dewpoint Depression Visibility Wind Speed Wind Dir Waves Ship Positions

K-storm

Last reported at 2014-Sep-26 13:27 UTC. Time now 2014-Oct-01 12:16 UTC.
Position N 25°30' W 079°58'.

Length 139 m; draft 7.1 m.

Type: Cargo ship. MMSI: 305350000.

Date/timePositionNaut miles runAvg speedWind from/ knotsBaromVisibWave heightAir tempDewpointWater temp
2014-Sep-26 13:27N 25°30' W 079°58'1213.9
2014-Sep-26 12:34N 25°41' W 080°02'1413.7
2014-Sep-26 11:34N 25°55' W 080°03'1110.7
2014-Sep-26 10:33N 26°05' W 080°07'1 1.3
2014-Sep-26 09:33N 26°04' W 080°07'0 0.0
2014-Sep-26 08:29N 26°04' W 080°07'0 0.0
2014-Sep-26 07:23N 26°04' W 080°07'0 0.0
2014-Sep-26 06:28N 26°04' W 080°07'0 0.0
2014-Sep-26 05:25N 26°04' W 080°07'0 0.0
2014-Sep-26 04:33N 26°04' W 080°07'0 0.0
2014-Sep-26 03:27N 26°04' W 080°07'0 0.0
2014-Sep-26 02:33N 26°04' W 080°07'0 0.0
2014-Sep-26 01:29N 26°04' W 080°07'0 0.0
2014-Sep-26 00:32N 26°04' W 080°07'0 0.0
2014-Sep-25 23:31N 26°04' W 080°07'0 0.0
2014-Sep-25 22:25N 26°04' W 080°07'0 0.0
2014-Sep-25 21:33N 26°04' W 080°07'0 0.0
2014-Sep-25 20:27N 26°04' W 080°07'0 0.0
2014-Sep-25 19:33N 26°04' W 080°07'0 0.0
2014-Sep-25 18:29N 26°04' W 080°07'0 0.0
2014-Sep-25 17:32N 26°04' W 080°07'0 0.0
2014-Sep-25 16:31N 26°04' W 080°07'0 0.0
2014-Sep-25 15:25N 26°04' W 080°07'0 0.0
2014-Sep-25 14:33N 26°04' W 080°07'0 0.0
2014-Sep-25 13:24N 26°04' W 080°07'0 0.0
2014-Sep-25 12:33N 26°04' W 080°07'0 0.0
2014-Sep-25 11:29N 26°04' W 080°07'0 0.0
2014-Sep-25 10:32N 26°04' W 080°07'0 0.0
2014-Sep-25 09:31N 26°04' W 080°07'0 0.0
2014-Sep-25 08:19N 26°04' W 080°07'0 0.0
2014-Sep-25 07:33N 26°04' W 080°07'0 0.0
2014-Sep-25 06:28N 26°04' W 080°07'0 0.0
2014-Sep-25 05:33N 26°04' W 080°07'0 0.0
2014-Sep-25 04:32N 26°04' W 080°07'0 0.0
2014-Sep-25 03:26N 26°04' W 080°07'3 3.4
2014-Sep-25 02:33N 26°05' W 080°04'1414.4
2014-Sep-25 01:33N 25°51' W 079°60'1817.7
2014-Sep-25 00:33N 25°33' W 079°58'  
2014-Sep-19 14:33N 25°28' W 080°01'1615.9
2014-Sep-19 13:33N 25°44' W 080°02'1717.3
2014-Sep-19 12:33N 26°01' W 080°03'4 4.1
2014-Sep-19 11:31N 26°04' W 080°07'0 0.0
2014-Sep-19 10:22N 26°04' W 080°07'0 0.0
2014-Sep-19 09:33N 26°04' W 080°07'0 0.0
2014-Sep-19 08:24N 26°04' W 080°07'0 0.0
2014-Sep-19 07:32N 26°04' W 080°07'0 0.0
2014-Sep-19 06:26N 26°04' W 080°07'0 0.0
2014-Sep-19 05:19N 26°04' W 080°07'0 0.0
2014-Sep-19 04:28N 26°04' W 080°07'0 0.0
2014-Sep-19 03:21N 26°04' W 080°07'0 0.0
2014-Sep-19 02:33N 26°04' W 080°07'0 0.0
2014-Sep-19 01:24N 26°04' W 080°07'0 0.0
2014-Sep-19 00:32N 26°04' W 080°07'0 0.0
2014-Sep-18 23:26N 26°04' W 080°07'0 0.0
2014-Sep-18 22:31N 26°04' W 080°07'0 0.0
2014-Sep-18 21:28N 26°04' W 080°07'0 0.0
2014-Sep-18 20:21N 26°04' W 080°07'0 0.0
2014-Sep-18 19:30N 26°04' W 080°07'0 0.0
2014-Sep-18 18:33N 26°04' W 080°07'0 0.0
2014-Sep-18 17:32N 26°04' W 080°07'0 0.0
2014-Sep-18 16:26N 26°04' W 080°07'0 0.0
2014-Sep-18 15:31N 26°04' W 080°07'0 0.0
2014-Sep-18 14:28N 26°04' W 080°07'0 0.0
2014-Sep-18 13:30N 26°04' W 080°07'0 0.0
2014-Sep-18 12:30N 26°04' W 080°07'0 0.0
2014-Sep-18 11:33N 26°04' W 080°07'0 0.0
2014-Sep-18 10:29N 26°04' W 080°07'0 0.0
2014-Sep-18 09:26N 26°04' W 080°07'0 0.0
2014-Sep-18 08:31N 26°04' W 080°07'0 0.0
2014-Sep-18 07:28N 26°04' W 080°07'0 0.0
2014-Sep-18 06:33N 26°04' W 080°07'0 0.0
2014-Sep-18 05:29N 26°04' W 080°07'0 0.0
2014-Sep-18 04:33N 26°04' W 080°07'1 0.7
2014-Sep-18 03:33N 26°05' W 080°07'5 5.1
2014-Sep-18 02:33N 26°02' W 080°02'1616.5
2014-Sep-18 01:33N 25°46' W 079°58'  
Track history (hours):
 
Tides and Currents Weather Stations Pressure Air Temp Water Temp Dewpoint Dewpoint Depression Visibility Wind Speed Wind Dir Waves Ship Positions

K-storm

Last reported at 2014-Sep-26 13:27 UTC. Time now 2014-Oct-01 12:16 UTC.
Position N 25°30' W 079°58'.

Length 139 m; draft 7.1 m.

Type: Cargo ship. MMSI: 305350000.

Date/timePositionNaut miles runAvg speedWind from/ knotsBaromVisibWave heightAir tempDewpointWater temp
2014-Sep-26 13:27N 25°30' W 079°58'1213.9
2014-Sep-26 12:34N 25°41' W 080°02'1413.7
2014-Sep-26 11:34N 25°55' W 080°03'1110.7
2014-Sep-26 10:33N 26°05' W 080°07'1 1.3
2014-Sep-26 09:33N 26°04' W 080°07'0 0.0
2014-Sep-26 08:29N 26°04' W 080°07'0 0.0
2014-Sep-26 07:23N 26°04' W 080°07'0 0.0
2014-Sep-26 06:28N 26°04' W 080°07'0 0.0
2014-Sep-26 05:25N 26°04' W 080°07'0 0.0
2014-Sep-26 04:33N 26°04' W 080°07'0 0.0
2014-Sep-26 03:27N 26°04' W 080°07'0 0.0
2014-Sep-26 02:33N 26°04' W 080°07'0 0.0
2014-Sep-26 01:29N 26°04' W 080°07'0 0.0
2014-Sep-26 00:32N 26°04' W 080°07'0 0.0
2014-Sep-25 23:31N 26°04' W 080°07'0 0.0
2014-Sep-25 22:25N 26°04' W 080°07'0 0.0
2014-Sep-25 21:33N 26°04' W 080°07'0 0.0
2014-Sep-25 20:27N 26°04' W 080°07'0 0.0
2014-Sep-25 19:33N 26°04' W 080°07'0 0.0
2014-Sep-25 18:29N 26°04' W 080°07'0 0.0
2014-Sep-25 17:32N 26°04' W 080°07'0 0.0
2014-Sep-25 16:31N 26°04' W 080°07'0 0.0
2014-Sep-25 15:25N 26°04' W 080°07'0 0.0
2014-Sep-25 14:33N 26°04' W 080°07'0 0.0
2014-Sep-25 13:24N 26°04' W 080°07'0 0.0
2014-Sep-25 12:33N 26°04' W 080°07'0 0.0
2014-Sep-25 11:29N 26°04' W 080°07'0 0.0
2014-Sep-25 10:32N 26°04' W 080°07'0 0.0
2014-Sep-25 09:31N 26°04' W 080°07'0 0.0
2014-Sep-25 08:19N 26°04' W 080°07'0 0.0
2014-Sep-25 07:33N 26°04' W 080°07'0 0.0
2014-Sep-25 06:28N 26°04' W 080°07'0 0.0
2014-Sep-25 05:33N 26°04' W 080°07'0 0.0
2014-Sep-25 04:32N 26°04' W 080°07'0 0.0
2014-Sep-25 03:26N 26°04' W 080°07'3 3.4
2014-Sep-25 02:33N 26°05' W 080°04'1414.4
2014-Sep-25 01:33N 25°51' W 079°60'1817.7
2014-Sep-25 00:33N 25°33' W 079°58'  
2014-Sep-19 14:33N 25°28' W 080°01'1615.9
2014-Sep-19 13:33N 25°44' W 080°02'1717.3
2014-Sep-19 12:33N 26°01' W 080°03'4 4.1
2014-Sep-19 11:31N 26°04' W 080°07'0 0.0
2014-Sep-19 10:22N 26°04' W 080°07'0 0.0
2014-Sep-19 09:33N 26°04' W 080°07'0 0.0
2014-Sep-19 08:24N 26°04' W 080°07'0 0.0
2014-Sep-19 07:32N 26°04' W 080°07'0 0.0
2014-Sep-19 06:26N 26°04' W 080°07'0 0.0
2014-Sep-19 05:19N 26°04' W 080°07'0 0.0
2014-Sep-19 04:28N 26°04' W 080°07'0 0.0
2014-Sep-19 03:21N 26°04' W 080°07'0 0.0
2014-Sep-19 02:33N 26°04' W 080°07'0 0.0
2014-Sep-19 01:24N 26°04' W 080°07'0 0.0
2014-Sep-19 00:32N 26°04' W 080°07'0 0.0
2014-Sep-18 23:26N 26°04' W 080°07'0 0.0
2014-Sep-18 22:31N 26°04' W 080°07'0 0.0
2014-Sep-18 21:28N 26°04' W 080°07'0 0.0
2014-Sep-18 20:21N 26°04' W 080°07'0 0.0
2014-Sep-18 19:30N 26°04' W 080°07'0 0.0
2014-Sep-18 18:33N 26°04' W 080°07'0 0.0
2014-Sep-18 17:32N 26°04' W 080°07'0 0.0
2014-Sep-18 16:26N 26°04' W 080°07'0 0.0
2014-Sep-18 15:31N 26°04' W 080°07'0 0.0
2014-Sep-18 14:28N 26°04' W 080°07'0 0.0
2014-Sep-18 13:30N 26°04' W 080°07'0 0.0
2014-Sep-18 12:30N 26°04' W 080°07'0 0.0
2014-Sep-18 11:33N 26°04' W 080°07'0 0.0
2014-Sep-18 10:29N 26°04' W 080°07'0 0.0
2014-Sep-18 09:26N 26°04' W 080°07'0 0.0
2014-Sep-18 08:31N 26°04' W 080°07'0 0.0
2014-Sep-18 07:28N 26°04' W 080°07'0 0.0
2014-Sep-18 06:33N 26°04' W 080°07'0 0.0
2014-Sep-18 05:29N 26°04' W 080°07'0 0.0
2014-Sep-18 04:33N 26°04' W 080°07'1 0.7
2014-Sep-18 03:33N 26°05' W 080°07'5 5.1
2014-Sep-18 02:33N 26°02' W 080°02'1616.5
2014-Sep-18 01:33N 25°46' W 079°58'  

Dump ship's entire track history